createdAt,value
2023-05-17T00:01:16.664Z,8.40
2023-05-17T00:03:44.163Z,8.40
2023-05-17T00:06:11.952Z,8.44
2023-05-17T00:08:40.794Z,8.24
2023-05-17T00:11:08.295Z,8.33
2023-05-17T00:13:35.784Z,8.21
2023-05-17T00:16:03.287Z,8.38
2023-05-17T00:18:31.422Z,8.25
2023-05-17T00:20:59.070Z,8.37
2023-05-17T00:23:26.601Z,8.26
2023-05-17T00:25:55.493Z,8.13
2023-05-17T00:28:22.989Z,8.29
2023-05-17T00:30:51.002Z,8.16
2023-05-17T00:33:18.521Z,8.06
2023-05-17T00:35:46.010Z,8.07
2023-05-17T00:38:13.504Z,8.03
2023-05-17T00:40:40.992Z,7.93
2023-05-17T00:43:09.866Z,7.96
2023-05-17T00:45:37.338Z,7.94
2023-05-17T00:48:05.675Z,8.04
2023-05-17T00:50:33.351Z,7.97
2023-05-17T00:53:01.045Z,7.89
2023-05-17T00:55:29.398Z,8.06
2023-05-17T00:57:57.249Z,7.96
2023-05-17T01:00:26.325Z,7.84
2023-05-17T01:02:53.982Z,7.83
2023-05-17T01:05:21.779Z,7.95
2023-05-17T01:07:49.289Z,7.90
2023-05-17T01:10:16.838Z,7.98
2023-05-17T01:12:56.741Z,7.99
2023-05-17T01:15:29.469Z,8.06
2023-05-17T01:18:07.847Z,7.98
2023-05-17T01:20:38.791Z,7.88
2023-05-17T01:23:24.929Z,7.95
2023-05-17T01:25:58.597Z,8.24
2023-05-17T01:28:28.576Z,8.07
2023-05-17T01:30:56.955Z,7.90
2023-05-17T01:33:25.109Z,7.79
2023-05-17T01:35:52.684Z,8.00
2023-05-17T01:38:20.198Z,7.87
2023-05-17T01:40:53.285Z,7.87
2023-05-17T01:43:25.872Z,7.81
2023-05-17T01:46:04.839Z,7.77
2023-05-17T01:48:37.483Z,7.67
2023-05-17T01:51:05.863Z,7.63
2023-05-17T01:53:39.230Z,7.68
2023-05-17T01:56:11.669Z,7.75
2023-05-17T01:58:46.624Z,7.58
2023-05-17T02:01:17.820Z,7.50
2023-05-17T02:03:48.489Z,7.73
2023-05-17T02:06:16.115Z,7.56
2023-05-17T02:08:43.747Z,7.51
2023-05-17T02:11:11.264Z,7.49
2023-05-17T02:13:38.741Z,7.47
2023-05-17T02:16:07.096Z,7.28
2023-05-17T02:18:37.762Z,7.25
2023-05-17T02:21:05.998Z,7.34
2023-05-17T02:23:33.521Z,7.14
2023-05-17T02:26:01.213Z,7.30
2023-05-17T02:28:28.724Z,7.15
2023-05-17T02:30:56.501Z,7.14
2023-05-17T02:33:24.178Z,7.14
2023-05-17T02:35:53.093Z,7.18
2023-05-17T02:38:20.614Z,7.13
2023-05-17T02:40:48.115Z,7.05
2023-05-17T02:43:15.605Z,7.09
2023-05-17T02:45:44.518Z,6.93
2023-05-17T02:48:12.034Z,6.99
2023-05-17T02:50:39.618Z,6.85
2023-05-17T02:53:08.491Z,6.95
2023-05-17T02:55:36.001Z,6.85
2023-05-17T02:58:04.428Z,6.72
2023-05-17T03:00:31.942Z,6.66
2023-05-17T03:02:59.528Z,6.64
2023-05-17T03:05:27.208Z,6.72
2023-05-17T03:07:54.791Z,6.55
2023-05-17T03:10:23.635Z,6.64
2023-05-17T03:12:51.272Z,6.74
2023-05-17T03:15:19.117Z,6.71
2023-05-17T03:17:46.680Z,6.63
2023-05-17T03:20:14.395Z,6.50
2023-05-17T03:22:41.865Z,6.48
2023-05-17T03:25:09.905Z,6.40
2023-05-17T03:27:38.743Z,6.49
2023-05-17T03:30:07.570Z,6.48
2023-05-17T03:32:35.260Z,6.44
2023-05-17T03:35:02.832Z,6.44
2023-05-17T03:37:30.321Z,6.41
2023-05-17T03:39:57.810Z,6.39
2023-05-17T03:42:25.599Z,6.30
2023-05-17T03:44:55.082Z,6.26
2023-05-17T03:47:23.870Z,6.30
2023-05-17T03:49:51.588Z,6.37
2023-05-17T03:52:19.095Z,6.43
2023-05-17T03:54:48.239Z,6.29
2023-05-17T03:57:15.960Z,6.41
2023-05-17T03:59:43.451Z,6.37
2023-05-17T04:02:12.359Z,6.34
2023-05-17T04:04:39.875Z,6.29
2023-05-17T04:07:07.895Z,6.48
2023-05-17T04:09:35.681Z,6.36
2023-05-17T04:12:03.413Z,6.39
2023-05-17T04:14:31.143Z,6.31
2023-05-17T04:16:59.494Z,6.52
2023-05-17T04:19:28.432Z,6.47
2023-05-17T04:21:56.018Z,6.63
2023-05-17T04:24:23.532Z,6.61
2023-05-17T04:26:51.033Z,6.38
2023-05-17T04:29:18.514Z,6.45
2023-05-17T04:31:47.075Z,6.47
2023-05-17T04:34:14.957Z,6.36
2023-05-17T04:36:43.960Z,6.60
2023-05-17T04:39:11.984Z,6.39
2023-05-17T04:41:39.486Z,6.41
2023-05-17T04:44:07.366Z,6.34
2023-05-17T04:46:35.066Z,6.40
2023-05-17T04:49:03.260Z,6.36
2023-05-17T04:51:31.274Z,6.36
2023-05-17T04:54:00.997Z,6.33
2023-05-17T04:56:28.679Z,6.43
2023-05-17T04:58:56.196Z,6.47
2023-05-17T05:01:23.683Z,6.45
2023-05-17T05:03:51.233Z,6.50
2023-05-17T05:06:18.789Z,6.53
2023-05-17T05:08:46.428Z,6.67
2023-05-17T05:11:15.263Z,6.73
2023-05-17T05:13:42.769Z,6.99
2023-05-17T05:16:10.249Z,6.97
2023-05-17T05:18:37.996Z,7.09
2023-05-17T05:21:05.740Z,6.95
2023-05-17T05:23:33.249Z,7.20
2023-05-17T05:26:00.881Z,7.28
2023-05-17T05:28:29.740Z,7.28
2023-05-17T05:31:00.615Z,7.25
2023-05-17T05:33:28.437Z,7.51
2023-05-17T05:35:56.220Z,7.59
2023-05-17T05:38:23.716Z,7.80
2023-05-17T05:40:51.271Z,8.04
2023-05-17T05:43:18.750Z,8.16
2023-05-17T05:45:47.604Z,8.63
2023-05-17T05:48:15.192Z,8.51
2023-05-17T05:50:43.860Z,8.92
2023-05-17T05:53:18.679Z,8.88
2023-05-17T05:55:47.593Z,9.07
2023-05-17T05:58:15.323Z,9.33
2023-05-17T06:00:42.866Z,9.25
2023-05-17T06:03:11.767Z,9.31
2023-05-17T06:05:40.361Z,9.16
2023-05-17T06:08:08.154Z,10.08
2023-05-17T06:10:35.685Z,9.46
2023-05-17T06:13:03.210Z,9.79
2023-05-17T06:15:32.334Z,9.90
2023-05-17T06:18:00.009Z,10.24
2023-05-17T06:20:29.104Z,10.71
2023-05-17T06:22:56.904Z,10.91
2023-05-17T06:25:24.567Z,10.64
2023-05-17T06:27:52.061Z,10.09
2023-05-17T06:30:19.739Z,10.23
2023-05-17T06:32:47.275Z,10.91
2023-05-17T06:35:14.761Z,11.11
2023-05-17T06:37:43.570Z,10.24
2023-05-17T06:40:16.555Z,11.11
2023-05-17T06:42:44.902Z,11.40
2023-05-17T06:45:12.633Z,11.53
2023-05-17T06:47:40.182Z,12.04
2023-05-17T06:50:09.067Z,11.89
2023-05-17T06:52:36.654Z,10.95
2023-05-17T06:55:06.178Z,11.55
2023-05-17T06:57:33.743Z,10.79
2023-05-17T07:00:01.227Z,11.15
2023-05-17T07:02:33.764Z,11.29
2023-05-17T07:05:02.209Z,11.54
2023-05-17T07:07:29.851Z,11.50
2023-05-17T07:09:57.377Z,11.33
2023-05-17T07:12:26.218Z,11.73
2023-05-17T07:14:53.705Z,11.72
2023-05-17T07:17:21.207Z,12.41
2023-05-17T07:19:51.004Z,12.01
2023-05-17T07:22:18.990Z,11.58
2023-05-17T07:24:46.533Z,11.84
2023-05-17T07:27:14.036Z,11.71
2023-05-17T07:29:43.353Z,12.78
2023-05-17T07:32:10.872Z,13.39
2023-05-17T07:34:38.493Z,13.69
2023-05-17T07:37:07.149Z,13.55
2023-05-17T07:39:34.669Z,13.34
2023-05-17T07:42:04.578Z,13.24
2023-05-17T07:44:32.852Z,14.23
2023-05-17T07:47:01.759Z,14.92
2023-05-17T07:49:29.258Z,13.69
2023-05-17T07:51:56.949Z,12.94
2023-05-17T07:54:25.553Z,11.99
2023-05-17T07:56:55.165Z,11.15
2023-05-17T07:59:22.706Z,10.91
2023-05-17T08:01:50.963Z,11.37
2023-05-17T08:04:20.110Z,11.56
2023-05-17T08:06:48.428Z,12.22
2023-05-17T08:09:16.726Z,13.22
2023-05-17T08:11:45.945Z,12.97
2023-05-17T08:14:15.647Z,13.88
2023-05-17T08:16:43.228Z,14.29
2023-05-17T08:19:14.036Z,14.85
2023-05-17T08:21:43.866Z,14.26
2023-05-17T08:24:11.611Z,13.73
2023-05-17T08:26:39.407Z,13.80
2023-05-17T08:29:07.293Z,14.38
2023-05-17T08:31:34.809Z,14.00
2023-05-17T08:34:03.262Z,14.66
2023-05-17T08:36:30.819Z,14.22
2023-05-17T08:38:59.646Z,14.17
2023-05-17T08:41:27.417Z,15.02
2023-05-17T08:43:56.834Z,15.17
2023-05-17T08:46:24.971Z,15.41
2023-05-17T08:48:59.893Z,16.76
2023-05-17T08:51:28.534Z,17.96
2023-05-17T08:53:56.162Z,16.30
2023-05-17T08:56:28.269Z,13.41
2023-05-17T08:58:58.097Z,13.61
2023-05-17T09:01:28.030Z,13.46
2023-05-17T09:03:56.907Z,13.88
2023-05-17T09:06:25.435Z,13.24
2023-05-17T09:08:54.653Z,12.91
2023-05-17T09:11:29.435Z,13.45
2023-05-17T09:14:00.848Z,12.37
2023-05-17T09:16:29.501Z,13.14
2023-05-17T09:18:58.297Z,13.91
2023-05-17T09:21:26.955Z,12.80
2023-05-17T09:26:38.270Z,12.94
2023-05-17T09:29:09.881Z,13.02
2023-05-17T09:31:37.476Z,13.39
2023-05-17T09:34:07.135Z,13.49
2023-05-17T09:36:36.654Z,13.22
2023-05-17T09:39:06.654Z,12.86
2023-05-17T09:41:42.972Z,13.43
2023-05-17T09:44:11.986Z,13.30
2023-05-17T09:46:43.258Z,13.94
2023-05-17T09:49:10.801Z,13.32
2023-05-17T09:51:41.598Z,12.89
2023-05-17T09:54:10.377Z,12.33
2023-05-17T09:56:39.724Z,12.65
2023-05-17T09:59:12.894Z,12.09
2023-05-17T10:01:42.190Z,11.93
2023-05-17T10:04:11.561Z,11.63
2023-05-17T10:09:15.042Z,12.80
2023-05-17T10:11:46.980Z,12.66
2023-05-17T10:14:22.449Z,12.59
2023-05-17T10:16:52.018Z,12.68
2023-05-17T10:19:21.320Z,12.97
2023-05-17T10:21:51.041Z,13.65
2023-05-17T10:24:18.925Z,14.05
2023-05-17T10:26:49.128Z,13.90
2023-05-17T10:29:18.235Z,12.92
2023-05-17T10:31:46.506Z,13.15
2023-05-17T10:34:17.795Z,13.44
2023-05-17T10:36:46.159Z,14.04
2023-05-17T10:39:13.950Z,15.24
2023-05-17T10:41:44.368Z,14.83
2023-05-17T10:44:15.843Z,14.94
2023-05-17T10:46:52.524Z,14.92
2023-05-17T10:49:24.136Z,13.96
2023-05-17T10:51:52.625Z,14.46
2023-05-17T10:54:20.184Z,14.95
2023-05-17T10:56:52.688Z,14.78
2023-05-17T10:59:26.830Z,13.53
2023-05-17T11:01:58.579Z,13.47
2023-05-17T11:04:28.184Z,13.46
2023-05-17T11:07:25.892Z,13.31
2023-05-17T11:09:55.860Z,12.51
2023-05-17T11:12:33.923Z,12.97
2023-05-17T11:15:08.253Z,13.31
2023-05-17T11:17:37.763Z,13.55
2023-05-17T11:20:13.152Z,13.59
2023-05-17T11:22:43.002Z,14.70
2023-05-17T11:25:12.465Z,13.81
2023-05-17T11:27:46.355Z,13.31
2023-05-17T11:30:20.706Z,13.23
2023-05-17T11:32:50.215Z,13.42
2023-05-17T11:35:19.174Z,13.47
2023-05-17T11:37:46.975Z,12.96
2023-05-17T11:40:15.910Z,12.41
2023-05-17T11:42:43.656Z,12.50
2023-05-17T11:45:12.084Z,12.60
2023-05-17T11:47:42.553Z,13.00
2023-05-17T11:50:11.734Z,13.33
2023-05-17T11:52:41.864Z,13.16
2023-05-17T11:55:15.301Z,13.03
2023-05-17T11:57:44.684Z,13.28
2023-05-17T12:00:13.573Z,13.30
2023-05-17T12:02:42.476Z,13.48
2023-05-17T12:05:10.071Z,13.53
2023-05-17T12:07:38.409Z,13.44
2023-05-17T12:10:06.795Z,13.62
2023-05-17T12:12:34.430Z,14.02
2023-05-17T12:15:01.987Z,14.35
2023-05-17T12:17:36.854Z,13.63
2023-05-17T12:20:10.665Z,13.46
2023-05-17T12:22:53.124Z,13.57
2023-05-17T12:25:22.433Z,13.82
2023-05-17T12:27:50.426Z,13.35
2023-05-17T12:30:18.919Z,12.93
2023-05-17T12:32:46.980Z,13.27
2023-05-17T12:35:16.204Z,13.01
2023-05-17T12:37:43.835Z,12.78
2023-05-17T12:40:12.234Z,13.14
2023-05-17T12:42:43.741Z,12.47
2023-05-17T12:45:13.572Z,12.33
2023-05-17T12:47:41.195Z,12.84
2023-05-17T12:50:09.158Z,13.22
2023-05-17T12:52:37.980Z,12.84
2023-05-17T12:55:06.992Z,12.52
2023-05-17T12:57:34.498Z,12.72
2023-05-17T13:00:07.994Z,13.50
2023-05-17T13:02:35.584Z,13.21
2023-05-17T13:05:15.156Z,13.24
2023-05-17T13:07:44.007Z,13.18
2023-05-17T13:10:25.989Z,13.55
2023-05-17T13:12:57.829Z,14.13
2023-05-17T13:15:32.496Z,13.02
2023-05-17T13:18:01.028Z,12.72
2023-05-17T13:20:29.118Z,12.59
2023-05-17T13:22:58.342Z,12.68
2023-05-17T13:25:26.039Z,13.00
2023-05-17T13:27:55.346Z,12.53
2023-05-17T13:30:23.240Z,12.49
2023-05-17T13:32:51.695Z,12.67
2023-05-17T13:35:19.204Z,12.72
2023-05-17T13:37:46.685Z,12.63
2023-05-17T13:40:16.316Z,12.87
2023-05-17T13:42:43.831Z,12.49
2023-05-17T13:45:12.714Z,12.41
2023-05-17T13:47:40.320Z,12.64
2023-05-17T13:50:09.197Z,12.54
2023-05-17T13:52:36.731Z,12.48
2023-05-17T13:55:04.491Z,12.66
2023-05-17T13:57:33.312Z,12.73
2023-05-17T14:00:00.803Z,12.93
2023-05-17T14:02:28.377Z,13.25
2023-05-17T14:04:55.908Z,13.49
2023-05-17T14:07:23.462Z,13.36
2023-05-17T14:09:50.952Z,13.32
2023-05-17T14:12:18.480Z,13.92
2023-05-17T14:14:47.296Z,13.61
2023-05-17T14:17:14.817Z,13.16
2023-05-17T14:19:42.461Z,12.89
2023-05-17T14:22:10.132Z,12.07
2023-05-17T14:24:37.671Z,12.13
2023-05-17T14:27:05.681Z,11.94
2023-05-17T14:29:33.162Z,11.72
2023-05-17T14:32:01.989Z,11.91
2023-05-17T14:34:30.897Z,12.06
2023-05-17T14:36:58.411Z,12.25
2023-05-17T14:39:25.897Z,12.15
2023-05-17T14:41:53.368Z,12.29
2023-05-17T14:44:21.108Z,12.33
2023-05-17T14:46:48.610Z,12.28
2023-05-17T14:49:17.512Z,12.32
2023-05-17T14:51:45.188Z,12.67
2023-05-17T14:54:13.734Z,12.62
2023-05-17T14:56:41.522Z,12.48
2023-05-17T14:59:09.750Z,12.62
2023-05-17T15:01:37.775Z,12.47
2023-05-17T15:04:05.594Z,13.19
2023-05-17T15:06:34.476Z,13.30
2023-05-17T15:09:03.840Z,13.53
2023-05-17T15:11:31.345Z,13.38
2023-05-17T15:13:58.928Z,13.51
2023-05-17T15:16:26.754Z,13.16
2023-05-17T15:18:56.738Z,12.81
2023-05-17T15:21:25.112Z,13.08
2023-05-17T15:23:53.962Z,13.20
2023-05-17T15:26:21.537Z,12.93
2023-05-17T15:28:49.965Z,13.75
2023-05-17T15:31:17.760Z,14.30
2023-05-17T15:33:45.333Z,13.33
2023-05-17T15:36:16.182Z,13.98
2023-05-17T15:38:43.783Z,13.76
2023-05-17T15:41:14.769Z,13.05
2023-05-17T15:43:42.658Z,12.66
2023-05-17T15:46:10.205Z,12.67
2023-05-17T15:48:37.819Z,13.03
2023-05-17T15:51:05.935Z,13.10
2023-05-17T15:53:34.288Z,13.08
2023-05-17T15:56:02.377Z,13.33
2023-05-17T15:58:33.176Z,13.21
2023-05-17T16:01:04.103Z,12.61
2023-05-17T16:03:31.606Z,12.58
2023-05-17T16:05:59.160Z,12.46
2023-05-17T16:08:26.675Z,12.49
2023-05-17T16:10:54.169Z,12.47
2023-05-17T16:13:21.683Z,12.61
2023-05-17T16:15:50.544Z,12.99
2023-05-17T16:18:18.999Z,12.88
2023-05-17T16:20:46.583Z,12.87
2023-05-17T16:23:14.059Z,12.85
2023-05-17T16:25:41.600Z,13.32
2023-05-17T16:28:09.123Z,13.86
2023-05-17T16:30:37.320Z,14.03
2023-05-17T16:33:08.394Z,13.95
2023-05-17T16:35:36.104Z,14.09
2023-05-17T16:38:03.591Z,14.30
2023-05-17T16:40:31.348Z,14.14
2023-05-17T16:42:59.092Z,13.53
2023-05-17T16:45:26.626Z,13.28
2023-05-17T16:47:54.199Z,13.82
2023-05-17T16:50:23.179Z,14.00
2023-05-17T16:52:50.683Z,13.93
2023-05-17T16:55:18.233Z,13.72
2023-05-17T16:57:45.723Z,13.74
2023-05-17T17:00:15.219Z,13.87
2023-05-17T17:02:42.826Z,14.20
2023-05-17T17:05:10.658Z,14.75
2023-05-17T17:07:39.494Z,14.56
2023-05-17T17:10:08.045Z,14.95
2023-05-17T17:12:35.581Z,14.90
2023-05-17T17:15:05.521Z,14.67
2023-05-17T17:17:34.550Z,14.43
2023-05-17T17:20:02.082Z,14.58
2023-05-17T17:22:29.566Z,14.59
2023-05-17T17:24:58.464Z,14.76
2023-05-17T17:27:26.134Z,15.02
2023-05-17T17:29:55.247Z,14.75
2023-05-17T17:32:22.882Z,15.49
2023-05-17T17:34:50.489Z,15.71
2023-05-17T17:37:17.974Z,16.09
2023-05-17T17:39:45.602Z,16.29
2023-05-17T17:42:14.458Z,16.50
2023-05-17T17:44:41.959Z,16.73
2023-05-17T17:47:09.555Z,16.64
2023-05-17T17:49:37.138Z,16.88
2023-05-17T17:52:04.800Z,16.79
2023-05-17T17:54:32.320Z,16.64
2023-05-17T17:56:59.815Z,16.38
2023-05-17T17:59:28.643Z,16.31
2023-05-17T18:01:56.198Z,16.10
2023-05-17T18:04:23.766Z,16.10
2023-05-17T18:06:51.359Z,15.96
2023-05-17T18:09:18.956Z,15.88
2023-05-17T18:11:46.491Z,15.76
2023-05-17T18:14:15.254Z,15.49
2023-05-17T18:16:44.263Z,15.50
2023-05-17T18:19:11.922Z,15.42
2023-05-17T18:21:39.556Z,15.45
2023-05-17T18:24:07.816Z,15.41
2023-05-17T18:26:35.431Z,15.14
2023-05-17T18:29:03.968Z,15.00
2023-05-17T18:31:31.612Z,14.71
2023-05-17T18:34:00.548Z,14.52
2023-05-17T18:36:28.386Z,14.46
2023-05-17T18:38:58.525Z,13.79
2023-05-17T18:41:26.198Z,14.02
2023-05-17T18:43:53.997Z,13.66
2023-05-17T18:46:21.573Z,13.76
2023-05-17T18:48:49.150Z,13.54
2023-05-17T18:51:18.142Z,13.20
2023-05-17T18:53:45.725Z,11.98
2023-05-17T18:56:16.252Z,12.12
2023-05-17T18:58:45.687Z,12.14
2023-05-17T19:01:13.899Z,12.20
2023-05-17T19:03:41.446Z,12.24
2023-05-17T19:06:08.976Z,12.29
2023-05-17T19:08:38.326Z,12.39
2023-05-17T19:11:07.122Z,12.44
2023-05-17T19:13:34.710Z,12.49
2023-05-17T19:16:03.042Z,12.50
2023-05-17T19:18:30.903Z,12.37
2023-05-17T19:20:58.460Z,12.26
2023-05-17T19:23:26.063Z,12.19
2023-05-17T19:25:55.730Z,11.78
2023-05-17T19:28:23.298Z,11.72
2023-05-17T19:30:50.947Z,11.59
2023-05-17T19:33:18.495Z,11.68
2023-05-17T19:35:46.567Z,11.55
2023-05-17T19:38:14.097Z,11.55
2023-05-17T19:40:41.640Z,11.56
2023-05-17T19:43:10.530Z,11.30
2023-05-17T19:45:38.249Z,10.81
2023-05-17T19:48:07.927Z,10.38
2023-05-17T19:50:36.603Z,10.48
2023-05-17T19:53:04.169Z,9.99
2023-05-17T19:55:31.983Z,9.63
2023-05-17T19:58:00.815Z,9.31
2023-05-17T20:00:31.771Z,9.18
2023-05-17T20:02:59.476Z,8.56
2023-05-17T20:05:27.218Z,8.55
2023-05-17T20:07:55.238Z,8.68
2023-05-17T20:10:23.102Z,8.77
2023-05-17T20:12:50.941Z,8.57
2023-05-17T20:15:18.458Z,8.33
2023-05-17T20:17:47.423Z,8.27
2023-05-17T20:20:15.006Z,8.43
2023-05-17T20:22:43.027Z,8.51
2023-05-17T20:25:11.090Z,8.62
2023-05-17T20:27:39.048Z,8.77
2023-05-17T20:30:08.315Z,8.77
2023-05-17T20:32:35.898Z,8.89
2023-05-17T20:35:05.159Z,8.97
2023-05-17T20:37:32.703Z,8.97
2023-05-17T20:40:00.310Z,8.92
2023-05-17T20:42:28.955Z,8.90
2023-05-17T20:44:57.632Z,8.87
2023-05-17T20:47:26.034Z,8.95
2023-05-17T20:49:53.930Z,9.03
2023-05-17T20:54:55.261Z,9.21
2023-05-17T20:57:22.761Z,8.99
2023-05-17T20:59:50.298Z,8.85
2023-05-17T21:02:17.857Z,8.85
2023-05-17T21:04:45.395Z,8.87
2023-05-17T21:07:12.934Z,8.81
2023-05-17T21:09:41.774Z,8.90
2023-05-17T21:12:09.366Z,8.94
2023-05-17T21:14:37.756Z,8.77
2023-05-17T21:17:06.390Z,8.77
2023-05-17T21:19:35.190Z,8.65
2023-05-17T21:22:02.828Z,8.71
2023-05-17T21:24:30.343Z,8.66
2023-05-17T21:26:59.183Z,8.77
2023-05-17T21:29:26.667Z,8.61
2023-05-17T21:31:54.201Z,8.43
2023-05-17T21:34:21.768Z,8.59
2023-05-17T21:36:49.279Z,8.63
2023-05-17T21:39:16.978Z,8.33
2023-05-17T21:41:44.543Z,8.33
2023-05-17T21:44:13.368Z,8.37
2023-05-17T21:46:40.992Z,8.27
2023-05-17T21:49:09.011Z,8.23
2023-05-17T21:51:36.519Z,8.26
2023-05-17T21:54:04.425Z,8.19
2023-05-17T21:56:31.935Z,8.27
2023-05-17T21:58:59.448Z,8.45
2023-05-17T22:01:28.459Z,8.29
2023-05-17T22:03:56.122Z,8.20
2023-05-17T22:06:23.804Z,8.15
2023-05-17T22:08:51.306Z,8.13
2023-05-17T22:11:21.249Z,8.03
2023-05-17T22:13:48.773Z,8.01
2023-05-17T22:16:16.305Z,7.91
2023-05-17T22:18:45.475Z,8.06
2023-05-17T22:21:14.450Z,8.15
2023-05-17T22:23:42.199Z,8.18
2023-05-17T22:26:09.716Z,7.90
2023-05-17T22:28:37.233Z,8.06
2023-05-17T22:31:07.598Z,8.06
2023-05-17T22:33:35.557Z,8.04
2023-05-17T22:36:04.913Z,8.01
2023-05-17T22:38:32.433Z,7.91
2023-05-17T22:40:59.956Z,7.79
2023-05-17T22:43:28.066Z,7.51
2023-05-17T22:45:59.671Z,7.60
2023-05-17T22:48:30.255Z,7.52
2023-05-17T22:50:58.737Z,7.55
2023-05-17T22:53:29.936Z,7.50
2023-05-17T22:55:57.734Z,7.35
2023-05-17T22:58:25.282Z,7.24
2023-05-17T23:00:53.449Z,7.25
2023-05-17T23:03:21.245Z,7.07
2023-05-17T23:05:48.839Z,7.19
2023-05-17T23:08:17.171Z,7.21
2023-05-17T23:10:46.215Z,7.04
2023-05-17T23:13:14.036Z,7.28
2023-05-17T23:15:46.642Z,7.22
2023-05-17T23:18:14.267Z,7.09
2023-05-17T23:20:42.083Z,7.28
2023-05-17T23:23:09.842Z,7.18
2023-05-17T23:25:37.444Z,7.01
2023-05-17T23:28:06.603Z,6.87
2023-05-17T23:30:34.177Z,6.97
2023-05-17T23:33:02.930Z,6.71
2023-05-17T23:35:30.744Z,6.70
2023-05-17T23:37:58.445Z,6.62
2023-05-17T23:40:26.017Z,6.48
2023-05-17T23:42:53.599Z,6.27
2023-05-17T23:45:22.667Z,6.24
2023-05-17T23:47:50.287Z,6.21
2023-05-17T23:50:18.017Z,6.11
2023-05-17T23:52:47.289Z,6.00
2023-05-17T23:55:14.784Z,6.05
2023-05-17T23:57:42.442Z,6.07
